PDT,Max TemperatureF,Mean TemperatureF,Min TemperatureF,Max Dew PointF,MeanDew PointF,Min DewpointF,Max Humidity, Mean Humidity, Min Humidity, Max Sea Level PressureIn, Mean Sea Level PressureIn, Min Sea Level PressureIn, Max VisibilityMiles, Mean VisibilityMiles, Min VisibilityMiles, Max Wind SpeedMPH, Mean Wind SpeedMPH, Max Gust SpeedMPH,PrecipitationIn, CloudCover, Events, WindDirDegrees
2013-9-1,94,74,54,54,49,42,83,51,18,29.86,29.79,29.70,10,10,10,13,6,16,0.00,0,,261
2013-9-2,91,74,57,55,51,43,72,46,20,29.84,29.79,29.75,10,10,10,12,5,15,0.00,1,,260
2013-9-3,90,77,63,57,54,50,73,50,26,29.92,29.88,29.85,10,10,10,10,5,14,0.00,1,,275
2013-9-4,93,79,64,55,52,45,63,42,20,29.95,29.91,29.85,10,10,10,13,6,23,0.00,2,,278
2013-9-5,87,74,61,60,56,52,78,58,37,29.94,29.88,29.79,10,10,7,37,9,48,0.01,4,Rain-Thunderstorm,277
2013-9-6,71,63,55,58,55,51,86,74,61,30.10,30.02,29.91,10,10,9,8,2,10,0.05,4,Rain,222
2013-9-7,77,63,49,56,53,47,96,68,40,30.12,30.07,30.02,10,10,10,15,5,20,0.00,4,,311
2013-9-8,85,69,53,56,53,49,86,58,29,30.09,30.02,29.94,10,10,10,10,4,15,0.00,1,,235
2013-9-9,89,70,51,55,50,46,83,55,26,29.99,29.93,29.88,10,10,10,9,4,14,0.00,0,,241
2013-9-10,92,73,54,56,52,49,83,53,23,30.01,29.95,29.90,10,10,10,12,6,13,0.00,0,,257
2013-9-11,96,76,56,58,50,45,77,48,19,30.03,29.97,29.92,10,10,10,12,6,14,0.00,0,,262
2013-9-12,98,77,56,58,52,48,77,49,20,29.97,29.89,29.81,10,10,10,12,5,13,0.00,0,,252
2013-9-13,97,78,59,57,51,43,78,47,16,29.84,29.77,29.69,10,10,10,14,6,28,0.00,0,,262
2013-9-14,96,76,56,62,54,50,80,52,23,29.82,29.76,29.71,10,10,10,13,5,15,0.00,0,,261
2013-9-15,94,80,66,59,53,48,78,50,22,29.72,29.66,29.56,10,10,10,37,6,46,0.03,1,Rain-Thunderstorm,231
2013-9-16,79,68,56,58,52,47,93,63,33,29.86,29.82,29.73,10,10,6,14,4,17,0.02,2,Rain,274
2013-9-17,72,61,49,49,45,40,93,67,41,29.85,29.79,29.73,10,10,10,21,7,26,0.00,2,,301
2013-9-18,75,59,43,43,40,37,83,55,27,30.06,29.98,29.87,10,10,10,13,5,17,0.00,1,,299
2013-9-19,77,58,38,48,41,35,92,60,27,30.10,30.00,29.87,10,10,10,10,4,13,0.00,0,,263
2013-9-20,79,61,42,48,41,35,83,52,21,29.86,29.69,29.56,10,10,10,22,5,29,T,1,,256
2013-9-21,75,60,45,49,45,41,83,57,31,29.68,29.64,29.60,10,10,10,17,4,24,T,3,Rain,239
2013-9-22,68,55,41,49,43,39,93,66,39,29.77,29.69,29.65,10,10,10,31,8,41,0.02,3,Rain,222
2013-9-23,67,56,44,47,44,41,92,70,48,29.91,29.86,29.77,10,10,10,7,3,,T,6,Rain,331
2013-9-24,66,56,46,40,37,33,66,49,31,29.88,29.81,29.78,10,10,10,12,4,23,0.00,1,,279
2013-9-25,68,56,43,43,38,33,83,56,29,29.94,29.84,29.79,10,10,10,22,6,28,0.00,5,,282
2013-9-26,69,54,39,41,37,33,79,54,29,30.09,30.03,29.94,10,10,10,10,3,14,0.00,4,,309
2013-9-27,62,48,33,46,40,30,89,70,51,30.09,30.00,29.90,10,10,10,17,4,23,0.01,4,Rain,169
2013-9-28,70,59,48,53,48,43,93,72,51,29.89,29.65,29.44,10,10,10,31,11,41,0.08,6,Rain,230
2013-9-29,62,54,45,49,43,41,89,70,51,29.63,29.54,29.32,10,10,10,28,11,35,0.08,5,Rain,183
2013-9-30,63,52,41,46,39,36,71,55,39,29.94,29.74,29.45,10,10,10,25,9,33,T,3,Rain,237